createdAt,value
2023-05-08T00:00:24.000Z,0
2023-05-08T00:03:08.000Z,0
2023-05-08T00:05:53.000Z,0
2023-05-08T00:08:38.000Z,0
2023-05-08T00:11:22.000Z,0
2023-05-08T00:12:40.000Z,0
2023-05-08T00:14:07.000Z,0
2023-05-08T00:16:51.000Z,0
2023-05-08T00:19:36.000Z,0
2023-05-08T00:22:21.000Z,0
2023-05-08T00:25:05.000Z,0
2023-05-08T00:27:50.000Z,0
2023-05-08T00:30:35.000Z,0
2023-05-08T00:33:19.000Z,0
2023-05-08T00:36:04.000Z,0
2023-05-08T00:38:49.000Z,0
2023-05-08T00:40:06.000Z,0
2023-05-08T00:41:33.000Z,0
2023-05-08T00:44:18.000Z,0
2023-05-08T00:47:03.000Z,0
2023-05-08T00:49:47.000Z,0
2023-05-08T00:52:32.000Z,0
2023-05-08T00:55:16.000Z,0
2023-05-08T00:58:01.000Z,0
2023-05-08T01:00:46.000Z,0
2023-05-08T01:03:30.000Z,0
2023-05-08T01:06:15.000Z,0
2023-05-08T01:07:33.000Z,0
2023-05-08T01:09:00.000Z,0
2023-05-08T01:11:44.000Z,0
2023-05-08T01:14:29.000Z,0
2023-05-08T01:17:14.000Z,0
2023-05-08T01:19:58.000Z,0
2023-05-08T01:22:43.000Z,0
2023-05-08T01:25:27.000Z,0
2023-05-08T01:28:12.000Z,0
2023-05-08T01:30:57.000Z,0
2023-05-08T01:33:41.000Z,0
2023-05-08T01:34:59.000Z,0
2023-05-08T01:36:26.000Z,0
2023-05-08T01:39:11.000Z,0
2023-05-08T01:41:55.000Z,0
2023-05-08T01:44:40.000Z,0
2023-05-08T01:47:25.000Z,0
2023-05-08T01:50:09.000Z,0
2023-05-08T01:52:54.000Z,0
2023-05-08T01:55:39.000Z,0
2023-05-08T01:58:23.664Z,0
2023-05-08T02:01:08.000Z,0
2023-05-08T02:02:26.000Z,0
2023-05-08T02:03:52.000Z,0
2023-05-08T02:06:37.000Z,0
2023-05-08T02:09:22.000Z,0
2023-05-08T02:12:06.000Z,0
2023-05-08T02:14:51.000Z,0
2023-05-08T02:17:36.000Z,0
2023-05-08T02:20:20.000Z,0
2023-05-08T02:23:05.000Z,0
2023-05-08T02:25:50.000Z,0
2023-05-08T02:28:34.000Z,0
2023-05-08T02:29:52.000Z,0
2023-05-08T02:31:19.000Z,0
2023-05-08T02:34:03.000Z,0
2023-05-08T02:36:48.000Z,0
2023-05-08T02:39:33.000Z,0
2023-05-08T02:42:17.000Z,0
2023-05-08T02:45:02.000Z,0
2023-05-08T02:47:47.000Z,0
2023-05-08T02:50:31.000Z,0
2023-05-08T02:53:16.000Z,0
2023-05-08T02:56:01.000Z,0
2023-05-08T02:57:19.000Z,0
2023-05-08T02:58:45.000Z,0
2023-05-08T03:01:30.000Z,0
2023-05-08T03:04:15.000Z,0
2023-05-08T03:06:59.000Z,0
2023-05-08T03:09:44.000Z,0
2023-05-08T03:12:28.000Z,0
2023-05-08T03:15:13.000Z,0
2023-05-08T03:17:58.000Z,4
2023-05-08T03:20:42.000Z,4
2023-05-08T03:23:27.000Z,4
2023-05-08T03:24:45.000Z,4
2023-05-08T03:26:12.000Z,4
2023-05-08T03:28:56.000Z,8
2023-05-08T03:31:41.000Z,8
2023-05-08T03:34:26.000Z,16
2023-05-08T03:37:10.000Z,20
2023-05-08T03:39:55.000Z,28
2023-05-08T03:42:40.000Z,36
2023-05-08T03:45:24.000Z,48
2023-05-08T03:48:25.000Z,60
2023-05-08T03:51:10.000Z,84
2023-05-08T03:52:28.000Z,100
2023-05-08T03:53:54.000Z,112
2023-05-08T03:56:39.000Z,120
2023-05-08T03:59:24.000Z,140
2023-05-08T04:02:08.000Z,168
2023-05-08T04:04:53.000Z,200
2023-05-08T04:07:38.000Z,232
2023-05-08T04:10:22.000Z,272
2023-05-08T04:13:07.000Z,324
2023-05-08T04:15:52.000Z,388
2023-05-08T04:18:36.000Z,448
2023-05-08T04:19:54.000Z,508
2023-05-08T04:21:21.000Z,544
2023-05-08T04:24:05.000Z,580
2023-05-08T04:26:50.000Z,648
2023-05-08T04:29:35.000Z,656
2023-05-08T04:32:19.000Z,660
2023-05-08T04:35:04.000Z,708
2023-05-08T04:37:49.000Z,788
2023-05-08T04:40:33.000Z,1144
2023-05-08T04:43:18.000Z,1644
2023-05-08T04:46:03.000Z,2060
2023-05-08T04:47:20.000Z,1424
2023-05-08T04:48:47.000Z,2244
2023-05-08T04:51:32.000Z,1256
2023-05-08T04:54:17.000Z,2376
2023-05-08T04:57:01.000Z,3960
2023-05-08T04:59:46.000Z,4024
2023-05-08T05:02:30.000Z,1792
2023-05-08T05:05:15.000Z,1784
2023-05-08T05:08:00.000Z,1740
2023-05-08T05:10:44.000Z,1892
2023-05-08T05:13:29.000Z,1832
2023-05-08T05:14:47.000Z,2064
2023-05-08T05:16:14.000Z,2196
2023-05-08T05:18:58.000Z,2056
2023-05-08T05:21:43.000Z,2324
2023-05-08T05:24:28.000Z,2868
2023-05-08T05:27:12.000Z,2716
2023-05-08T05:29:57.000Z,2328
2023-05-08T05:32:42.000Z,2140
2023-05-08T05:35:26.000Z,2156
2023-05-08T05:38:11.000Z,2216
2023-05-08T05:40:55.000Z,2196
2023-05-08T05:42:13.000Z,2092
2023-05-08T05:43:40.000Z,2048
2023-05-08T05:46:25.000Z,1996
2023-05-08T05:49:09.000Z,1856
2023-05-08T05:51:54.000Z,1740
2023-05-08T05:54:39.000Z,1712
2023-05-08T05:57:23.000Z,1716
2023-05-08T06:00:08.000Z,1748
2023-05-08T06:02:53.000Z,1784
2023-05-08T06:05:37.000Z,1872
2023-05-08T06:08:22.000Z,1988
2023-05-08T06:09:40.000Z,2044
2023-05-08T06:11:06.000Z,2040
2023-05-08T06:13:51.000Z,2024
2023-05-08T06:16:36.000Z,2036
2023-05-08T06:19:20.000Z,2128
2023-05-08T06:22:05.000Z,2196
2023-05-08T06:24:50.000Z,2300
2023-05-08T06:27:34.000Z,2444
2023-05-08T06:30:19.000Z,2528
2023-05-08T06:33:04.000Z,2580
2023-05-08T06:35:48.000Z,2680
2023-05-08T06:37:06.000Z,2692
2023-05-08T06:38:33.000Z,2680
2023-05-08T06:41:18.000Z,2728
2023-05-08T06:44:02.000Z,2888
2023-05-08T06:46:47.000Z,2968
2023-05-08T06:49:31.000Z,2972
2023-05-08T06:52:16.000Z,3228
2023-05-08T06:55:01.000Z,3832
2023-05-08T06:57:45.000Z,4444
2023-05-08T07:00:30.000Z,4708
2023-05-08T07:03:15.000Z,4924
2023-05-08T07:04:32.000Z,5300
2023-05-08T07:05:59.000Z,5580
2023-05-08T07:08:44.000Z,5832
2023-05-08T07:11:29.000Z,5968
2023-05-08T07:14:13.000Z,5628
2023-05-08T07:16:58.000Z,5180
2023-05-08T07:19:42.000Z,5052
2023-05-08T07:22:27.000Z,5088
2023-05-08T07:25:12.000Z,4992
2023-05-08T07:27:56.000Z,4884
2023-05-08T07:30:41.000Z,4804
2023-05-08T07:31:59.000Z,4744
2023-05-08T07:33:26.000Z,4692
2023-05-08T07:36:10.000Z,4636
2023-05-08T07:38:55.000Z,4716
2023-05-08T07:41:40.000Z,5024
2023-05-08T07:44:24.000Z,5480
2023-05-08T07:47:09.000Z,6008
2023-05-08T07:49:54.000Z,6564
2023-05-08T07:52:38.000Z,7288
2023-05-08T07:55:23.000Z,7640
2023-05-08T07:58:07.000Z,7540
2023-05-08T07:59:25.000Z,7984
2023-05-08T08:00:52.000Z,8788
2023-05-08T08:03:37.000Z,9896
2023-05-08T08:06:21.000Z,11384
2023-05-08T08:09:06.000Z,11172
2023-05-08T08:11:51.000Z,17184
2023-05-08T08:14:35.000Z,12876
2023-05-08T08:17:20.000Z,11800
2023-05-08T08:20:05.000Z,11044
2023-05-08T08:22:49.000Z,14484
2023-05-08T08:25:34.000Z,19104
2023-05-08T08:26:52.000Z,17216
2023-05-08T08:28:18.000Z,17088
2023-05-08T08:31:03.000Z,17664
2023-05-08T08:33:48.000Z,13384
2023-05-08T08:36:32.000Z,11564
2023-05-08T08:39:17.000Z,10152
2023-05-08T08:42:02.000Z,10260
2023-05-08T08:44:46.000Z,12112
2023-05-08T08:47:31.000Z,11128
2023-05-08T08:50:16.000Z,11248
2023-05-08T08:53:00.000Z,9496
2023-05-08T08:54:18.000Z,7864
2023-05-08T08:55:45.000Z,7844
2023-05-08T08:58:30.000Z,7976
2023-05-08T09:01:14.000Z,8032
2023-05-08T09:03:59.000Z,7828
2023-05-08T09:06:43.000Z,7948
2023-05-08T09:12:13.000Z,8700
2023-05-08T09:14:57.000Z,9148
2023-05-08T09:17:42.000Z,9688
2023-05-08T09:20:27.000Z,11100
2023-05-08T09:21:45.000Z,13344
2023-05-08T09:23:11.000Z,15808
2023-05-08T09:25:56.000Z,16352
2023-05-08T09:28:41.000Z,15584
2023-05-08T09:31:25.000Z,15680
2023-05-08T09:34:10.000Z,18176
2023-05-08T09:36:55.000Z,17024
2023-05-08T09:39:39.000Z,13356
2023-05-08T09:42:24.000Z,13256
2023-05-08T09:45:08.000Z,13328
2023-05-08T09:47:53.000Z,15456
2023-05-08T09:49:11.000Z,17472
2023-05-08T09:50:38.000Z,16512
2023-05-08T09:53:22.000Z,14944
2023-05-08T09:56:07.000Z,13524
2023-05-08T09:58:52.000Z,11092
2023-05-08T10:01:36.000Z,9372
2023-05-08T10:04:21.000Z,8432
2023-05-08T10:07:06.000Z,8276
2023-05-08T10:09:50.000Z,8336
2023-05-08T10:12:35.000Z,8208
2023-05-08T10:15:19.000Z,8372
2023-05-08T10:16:37.000Z,8996
2023-05-08T10:18:04.000Z,9104
2023-05-08T10:20:49.000Z,9172
2023-05-08T10:23:33.000Z,9424
2023-05-08T10:26:18.000Z,8328
2023-05-08T10:29:03.000Z,7824
2023-05-08T10:31:47.000Z,7432
2023-05-08T10:34:32.000Z,7004
2023-05-08T10:37:17.000Z,6628
2023-05-08T10:40:01.000Z,6252
2023-05-08T10:42:46.000Z,5800
2023-05-08T10:44:04.000Z,5384
2023-05-08T10:45:31.000Z,5288
2023-05-08T10:48:15.000Z,5268
2023-05-08T10:51:00.000Z,5384
2023-05-08T10:53:44.000Z,5584
2023-05-08T10:56:29.000Z,5644
2023-05-08T10:59:14.000Z,5808
2023-05-08T11:01:58.000Z,6128
2023-05-08T11:04:43.000Z,6680
2023-05-08T11:07:28.000Z,7488
2023-05-08T11:10:12.000Z,8128
2023-05-08T11:11:30.000Z,8216
2023-05-08T11:12:57.000Z,8148
2023-05-08T11:15:42.000Z,8220
2023-05-08T11:18:26.000Z,8620
2023-05-08T11:21:11.000Z,9204
2023-05-08T11:23:55.000Z,10136
2023-05-08T11:26:40.000Z,10404
2023-05-08T11:29:25.000Z,9372
2023-05-08T11:32:09.000Z,9412
2023-05-08T11:34:54.000Z,7952
2023-05-08T11:37:39.000Z,7180
2023-05-08T11:38:57.000Z,6708
2023-05-08T11:40:23.000Z,6568
2023-05-08T11:43:08.000Z,6568
2023-05-08T11:45:53.000Z,7812
2023-05-08T11:48:37.000Z,7048
2023-05-08T11:51:22.000Z,7676
2023-05-08T11:54:07.000Z,8320
2023-05-08T11:56:51.000Z,9056
2023-05-08T11:59:36.000Z,9208
2023-05-08T12:02:20.000Z,9220
2023-05-08T12:05:05.000Z,8520
2023-05-08T12:06:23.000Z,9012
2023-05-08T12:07:50.000Z,13024
2023-05-08T12:10:34.000Z,11120
2023-05-08T12:13:19.000Z,11996
2023-05-08T12:16:04.000Z,8408
2023-05-08T12:18:48.000Z,7852
2023-05-08T12:21:49.000Z,7820
2023-05-08T12:24:34.000Z,7004
2023-05-08T12:27:19.000Z,6872
2023-05-08T12:30:03.000Z,6672
2023-05-08T12:32:48.000Z,7152
2023-05-08T12:34:06.000Z,7724
2023-05-08T12:35:33.000Z,7696
2023-05-08T12:38:17.000Z,9032
2023-05-08T12:41:02.000Z,8012
2023-05-08T12:43:46.000Z,8172
2023-05-08T12:46:31.000Z,8892
2023-05-08T12:49:16.000Z,10684
2023-05-08T12:52:00.000Z,9568
2023-05-08T12:54:45.000Z,9064
2023-05-08T12:57:30.000Z,7620
2023-05-08T13:00:14.000Z,7104
2023-05-08T13:01:32.000Z,6584
2023-05-08T13:02:59.000Z,6356
2023-05-08T13:05:44.000Z,6172
2023-05-08T13:08:28.000Z,6056
2023-05-08T13:11:13.000Z,5940
2023-05-08T13:13:58.000Z,5964
2023-05-08T13:16:42.000Z,5788
2023-05-08T13:19:27.000Z,5656
2023-05-08T13:22:11.000Z,5512
2023-05-08T13:24:56.000Z,5288
2023-05-08T13:27:41.000Z,5016
2023-05-08T13:28:58.000Z,4596
2023-05-08T13:30:25.000Z,4436
2023-05-08T13:33:10.000Z,4332
2023-05-08T13:35:55.000Z,4108
2023-05-08T13:38:39.000Z,4020
2023-05-08T13:41:24.000Z,4196
2023-05-08T13:44:09.000Z,4524
2023-05-08T13:46:53.000Z,4692
2023-05-08T13:49:38.000Z,4744
2023-05-08T13:52:22.000Z,4736
2023-05-08T13:55:07.000Z,4452
2023-05-08T13:56:25.000Z,4144
2023-05-08T13:57:52.000Z,4092
2023-05-08T14:00:36.000Z,4044
2023-05-08T14:03:21.000Z,4108
2023-05-08T14:06:06.000Z,4272
2023-05-08T14:08:50.000Z,4244
2023-05-08T14:11:35.000Z,4192
2023-05-08T14:14:20.000Z,4172
2023-05-08T14:17:04.000Z,4272
2023-05-08T14:19:49.000Z,4492
2023-05-08T14:22:34.000Z,4680
2023-05-08T14:23:51.000Z,4856
2023-05-08T14:25:18.000Z,4884
2023-05-08T14:28:03.000Z,4908
2023-05-08T14:30:47.000Z,5016
2023-05-08T14:33:32.000Z,5132
2023-05-08T14:36:17.000Z,4868
2023-05-08T14:39:01.000Z,4480
2023-05-08T14:41:46.000Z,4276
2023-05-08T14:44:31.000Z,4144
2023-05-08T14:47:15.000Z,4244
2023-05-08T14:50:00.000Z,4400
2023-05-08T14:51:18.000Z,4812
2023-05-08T14:52:45.000Z,5120
2023-05-08T14:55:29.000Z,5284
2023-05-08T14:58:14.000Z,5808
2023-05-08T15:00:58.000Z,5080
2023-05-08T15:03:43.000Z,5236
2023-05-08T15:06:28.000Z,4824
2023-05-08T15:09:12.000Z,4820
2023-05-08T15:11:57.000Z,4940
2023-05-08T15:14:42.000Z,4984
2023-05-08T15:17:26.000Z,4932
2023-05-08T15:18:44.000Z,4812
2023-05-08T15:20:11.000Z,4672
2023-05-08T15:22:56.000Z,4512
2023-05-08T15:25:40.000Z,4088
2023-05-08T15:28:25.000Z,3676
2023-05-08T15:31:10.000Z,3356
2023-05-08T15:33:54.000Z,3096
2023-05-08T15:36:39.000Z,2936
2023-05-08T15:39:23.000Z,2888
2023-05-08T15:42:08.000Z,2928
2023-05-08T15:44:53.000Z,2932
2023-05-08T15:46:11.000Z,2828
2023-05-08T15:47:37.000Z,2764
2023-05-08T15:50:22.000Z,2728
2023-05-08T15:53:07.000Z,2820
2023-05-08T15:55:51.000Z,2788
2023-05-08T15:58:36.000Z,2512
2023-05-08T16:01:21.000Z,2328
2023-05-08T16:04:05.000Z,2236
2023-05-08T16:06:50.000Z,2032
2023-05-08T16:09:34.000Z,1872
2023-05-08T16:12:19.000Z,1948
2023-05-08T16:13:37.000Z,2160
2023-05-08T16:15:04.000Z,2176
2023-05-08T16:17:48.000Z,2156
2023-05-08T16:20:33.000Z,2112
2023-05-08T16:23:18.000Z,2084
2023-05-08T16:26:02.000Z,2124
2023-05-08T16:28:47.000Z,2140
2023-05-08T16:31:32.000Z,2140
2023-05-08T16:34:16.000Z,2096
2023-05-08T16:37:01.000Z,1996
2023-05-08T16:39:46.000Z,1960
2023-05-08T16:41:03.000Z,1976
2023-05-08T16:42:30.000Z,1940
2023-05-08T16:45:15.000Z,1860
2023-05-08T16:47:59.000Z,1776
2023-05-08T16:50:44.000Z,1852
2023-05-08T16:53:29.000Z,1940
2023-05-08T16:56:13.000Z,1920
2023-05-08T16:58:58.000Z,1880
2023-05-08T17:01:43.000Z,2016
2023-05-08T17:04:27.000Z,1936
2023-05-08T17:07:12.000Z,1872
2023-05-08T17:08:30.000Z,1800
2023-05-08T17:09:57.000Z,1796
2023-05-08T17:12:41.000Z,1740
2023-05-08T17:15:26.000Z,1612
2023-05-08T17:18:11.000Z,1508
2023-05-08T17:20:55.000Z,1396
2023-05-08T17:23:40.000Z,1356
2023-05-08T17:26:24.000Z,1288
2023-05-08T17:29:09.000Z,1184
2023-05-08T17:31:54.000Z,1104
2023-05-08T17:34:38.000Z,1036
2023-05-08T17:35:56.000Z,1016
2023-05-08T17:37:23.000Z,1008
2023-05-08T17:40:08.000Z,980
2023-05-08T17:42:52.000Z,888
2023-05-08T17:45:37.000Z,852
2023-05-08T17:48:22.000Z,812
2023-05-08T17:51:06.000Z,764
2023-05-08T17:53:51.000Z,728
2023-05-08T17:56:35.000Z,676
2023-05-08T17:59:20.000Z,612
2023-05-08T18:02:05.000Z,568
2023-05-08T18:03:23.000Z,532
2023-05-08T18:04:49.000Z,516
2023-05-08T18:07:34.000Z,500
2023-05-08T18:10:19.000Z,484
2023-05-08T18:13:03.000Z,476
2023-05-08T18:15:48.000Z,456
2023-05-08T18:18:33.000Z,428
2023-05-08T18:21:17.000Z,408
2023-05-08T18:24:02.000Z,392
2023-05-08T18:26:47.000Z,372
2023-05-08T18:29:31.000Z,344
2023-05-08T18:30:49.000Z,320
2023-05-08T18:32:16.000Z,308
2023-05-08T18:35:00.000Z,292
2023-05-08T18:37:45.000Z,260
2023-05-08T18:40:30.000Z,236
2023-05-08T18:43:14.000Z,212
2023-05-08T18:45:59.000Z,184
2023-05-08T18:48:44.000Z,160
2023-05-08T18:51:28.000Z,136
2023-05-08T18:54:13.000Z,112
2023-05-08T18:56:58.000Z,92
2023-05-08T18:58:16.000Z,72
2023-05-08T18:59:42.000Z,64
2023-05-08T19:02:27.000Z,56
2023-05-08T19:05:11.000Z,44
2023-05-08T19:07:56.000Z,32
2023-05-08T19:10:41.000Z,24
2023-05-08T19:13:25.000Z,16
2023-05-08T19:16:10.000Z,12
2023-05-08T19:18:55.000Z,8
2023-05-08T19:21:39.000Z,4
2023-05-08T19:24:24.000Z,4
2023-05-08T19:25:42.000Z,4
2023-05-08T19:27:09.000Z,0
2023-05-08T19:29:53.000Z,4
2023-05-08T19:32:38.000Z,0
2023-05-08T19:35:23.000Z,0
2023-05-08T19:38:07.000Z,0
2023-05-08T19:40:52.000Z,0
2023-05-08T19:43:36.000Z,0
2023-05-08T19:46:21.000Z,0
2023-05-08T19:49:06.000Z,0
2023-05-08T19:51:50.000Z,0
2023-05-08T19:53:08.000Z,0
2023-05-08T19:54:35.000Z,0
2023-05-08T19:57:20.000Z,0
2023-05-08T20:00:04.000Z,0
2023-05-08T20:02:49.000Z,0
2023-05-08T20:05:34.000Z,0
2023-05-08T20:08:18.000Z,0
2023-05-08T20:11:03.000Z,0
2023-05-08T20:13:47.000Z,0
2023-05-08T20:16:32.000Z,0
2023-05-08T20:19:17.000Z,0
2023-05-08T20:20:35.000Z,0
2023-05-08T20:22:01.000Z,0
2023-05-08T20:24:46.000Z,0
2023-05-08T20:27:31.000Z,0
2023-05-08T20:30:15.000Z,0
2023-05-08T20:33:00.000Z,0
2023-05-08T20:35:45.000Z,0
2023-05-08T20:38:29.000Z,0
2023-05-08T20:41:14.000Z,0
2023-05-08T20:44:15.000Z,0
2023-05-08T20:47:00.000Z,0
2023-05-08T20:48:17.000Z,0
2023-05-08T20:49:44.000Z,0
2023-05-08T20:52:29.000Z,0
2023-05-08T20:55:13.000Z,0
2023-05-08T20:57:58.000Z,0
2023-05-08T21:00:43.000Z,0
2023-05-08T21:03:27.000Z,0
2023-05-08T21:06:12.000Z,0
2023-05-08T21:08:57.000Z,0
2023-05-08T21:11:41.000Z,0
2023-05-08T21:14:26.000Z,0
2023-05-08T21:15:44.000Z,0
2023-05-08T21:17:11.000Z,0
2023-05-08T21:19:55.000Z,0
2023-05-08T21:22:40.000Z,0
2023-05-08T21:25:25.000Z,0
2023-05-08T21:28:09.000Z,0
2023-05-08T21:30:54.000Z,0
2023-05-08T21:33:38.000Z,0
2023-05-08T21:36:23.000Z,0
2023-05-08T21:39:08.000Z,0
2023-05-08T21:41:52.000Z,0
2023-05-08T21:43:10.000Z,0
2023-05-08T21:44:37.000Z,0
2023-05-08T21:47:22.000Z,0
2023-05-08T21:50:06.000Z,0
2023-05-08T21:52:51.000Z,0
2023-05-08T21:55:36.000Z,0
2023-05-08T21:58:20.000Z,0
2023-05-08T22:01:05.000Z,0
2023-05-08T22:03:49.000Z,0
2023-05-08T22:06:34.000Z,0
2023-05-08T22:09:19.000Z,0
2023-05-08T22:10:37.000Z,0
2023-05-08T22:12:03.000Z,0
2023-05-08T22:14:48.000Z,0
2023-05-08T22:17:33.000Z,0
2023-05-08T22:20:17.000Z,0
2023-05-08T22:23:02.000Z,0
2023-05-08T22:25:47.000Z,0
2023-05-08T22:28:31.000Z,0
2023-05-08T22:31:16.000Z,0
2023-05-08T22:34:01.000Z,0
2023-05-08T22:36:45.000Z,0
2023-05-08T22:38:03.000Z,0
2023-05-08T22:39:30.000Z,0
2023-05-08T22:42:14.000Z,0
2023-05-08T22:44:59.000Z,0
2023-05-08T22:47:44.000Z,0
2023-05-08T22:50:28.000Z,0
2023-05-08T22:53:13.000Z,0
2023-05-08T22:55:58.000Z,0
2023-05-08T22:58:42.000Z,0
2023-05-08T23:01:27.000Z,0
2023-05-08T23:04:12.000Z,0
2023-05-08T23:05:29.000Z,0
2023-05-08T23:06:56.000Z,0
2023-05-08T23:09:41.000Z,0
2023-05-08T23:12:25.000Z,0
2023-05-08T23:15:10.000Z,0
2023-05-08T23:17:55.000Z,0
2023-05-08T23:20:39.000Z,0
2023-05-08T23:23:24.000Z,0
2023-05-08T23:26:09.000Z,0
2023-05-08T23:28:53.000Z,0
2023-05-08T23:31:38.000Z,0
2023-05-08T23:32:56.000Z,0
2023-05-08T23:34:23.000Z,0
2023-05-08T23:37:07.000Z,0
2023-05-08T23:39:52.000Z,0
2023-05-08T23:42:37.000Z,0
2023-05-08T23:45:21.000Z,0
2023-05-08T23:48:06.000Z,0
2023-05-08T23:50:50.000Z,0
2023-05-08T23:53:35.000Z,0
2023-05-08T23:56:20.000Z,0
2023-05-08T23:59:04.000Z,0
